sensor_id;sensor_type;location;lat;lon;timestamp;P1;durP1;ratioP1;P2;durP2;ratioP2
40995;SDS011;26723;57.478;12.066;2022-09-09T00:00:12;0.50;;;0.50;;
40995;SDS011;26723;57.478;12.066;2022-09-09T00:03:23;1.00;;;0.70;;
40995;SDS011;26723;57.478;12.066;2022-09-09T00:06:36;0.80;;;0.57;;
40995;SDS011;26723;57.478;12.066;2022-09-09T00:09:53;0.70;;;0.70;;
40995;SDS011;26723;57.478;12.066;2022-09-09T00:13:13;0.70;;;0.70;;
40995;SDS011;26723;57.478;12.066;2022-09-09T00:16:24;0.60;;;0.60;;
40995;SDS011;26723;57.478;12.066;2022-09-09T00:19:39;0.50;;;0.50;;
40995;SDS011;26723;57.478;12.066;2022-09-09T00:22:53;0.60;;;0.60;;
40995;SDS011;26723;57.478;12.066;2022-09-09T00:26:08;0.80;;;0.80;;
40995;SDS011;26723;57.478;12.066;2022-09-09T00:29:24;0.68;;;0.60;;
40995;SDS011;26723;57.478;12.066;2022-09-09T00:32:42;0.50;;;0.50;;
40995;SDS011;26723;57.478;12.066;2022-09-09T00:35:53;0.70;;;0.70;;
40995;SDS011;26723;57.478;12.066;2022-09-09T00:39:05;0.80;;;0.80;;
40995;SDS011;26723;57.478;12.066;2022-09-09T00:42:18;0.60;;;0.60;;
40995;SDS011;26723;57.478;12.066;2022-09-09T00:45:46;0.60;;;0.60;;
40995;SDS011;26723;57.478;12.066;2022-09-09T00:49:20;0.63;;;0.63;;
40995;SDS011;26723;57.478;12.066;2022-09-09T00:52:40;1.27;;;0.70;;
40995;SDS011;26723;57.478;12.066;2022-09-09T00:56:00;0.55;;;0.55;;
40995;SDS011;26723;57.478;12.066;2022-09-09T00:59:20;0.53;;;0.53;;
40995;SDS011;26723;57.478;12.066;2022-09-09T01:02:39;0.60;;;0.60;;
40995;SDS011;26723;57.478;12.066;2022-09-09T01:06:00;0.60;;;0.60;;
40995;SDS011;26723;57.478;12.066;2022-09-09T01:09:13;0.80;;;0.80;;
40995;SDS011;26723;57.478;12.066;2022-09-09T01:12:32;0.67;;;0.67;;
40995;SDS011;26723;57.478;12.066;2022-09-09T01:15:46;0.60;;;0.60;;
40995;SDS011;26723;57.478;12.066;2022-09-09T01:18:57;0.50;;;0.50;;
40995;SDS011;26723;57.478;12.066;2022-09-09T01:22:10;0.60;;;0.60;;
40995;SDS011;26723;57.478;12.066;2022-09-09T01:25:28;0.68;;;0.68;;
40995;SDS011;26723;57.478;12.066;2022-09-09T01:28:48;0.70;;;0.70;;
40995;SDS011;26723;57.478;12.066;2022-09-09T01:32:03;0.47;;;0.47;;
40995;SDS011;26723;57.478;12.066;2022-09-09T01:35:33;0.73;;;0.73;;
40995;SDS011;26723;57.478;12.066;2022-09-09T01:38:48;0.60;;;0.60;;
40995;SDS011;26723;57.478;12.066;2022-09-09T01:41:57;0.60;;;0.60;;
40995;SDS011;26723;57.478;12.066;2022-09-09T01:45:08;0.60;;;0.60;;
40995;SDS011;26723;57.478;12.066;2022-09-09T01:48:18;0.85;;;0.80;;
40995;SDS011;26723;57.478;12.066;2022-09-09T01:51:40;0.63;;;0.63;;
40995;SDS011;26723;57.478;12.066;2022-09-09T01:54:53;0.70;;;0.70;;
40995;SDS011;26723;57.478;12.066;2022-09-09T01:58:09;0.90;;;0.90;;
40995;SDS011;26723;57.478;12.066;2022-09-09T02:01:37;0.70;;;0.70;;
40995;SDS011;26723;57.478;12.066;2022-09-09T02:04:54;0.80;;;0.80;;
40995;SDS011;26723;57.478;12.066;2022-09-09T02:08:15;0.80;;;0.80;;
40995;SDS011;26723;57.478;12.066;2022-09-09T02:11:34;1.27;;;0.77;;
40995;SDS011;26723;57.478;12.066;2022-09-09T02:14:52;0.80;;;0.80;;
40995;SDS011;26723;57.478;12.066;2022-09-09T02:18:12;1.17;;;0.70;;
40995;SDS011;26723;57.478;12.066;2022-09-09T02:21:24;1.07;;;0.93;;
40995;SDS011;26723;57.478;12.066;2022-09-09T02:24:36;1.83;;;0.90;;
40995;SDS011;26723;57.478;12.066;2022-09-09T02:27:54;0.70;;;0.70;;
40995;SDS011;26723;57.478;12.066;2022-09-09T02:31:05;0.77;;;0.77;;
40995;SDS011;26723;57.478;12.066;2022-09-09T02:34:20;0.87;;;0.87;;
40995;SDS011;26723;57.478;12.066;2022-09-09T02:37:31;1.17;;;0.83;;
40995;SDS011;26723;57.478;12.066;2022-09-09T02:40:45;2.17;;;1.00;;
40995;SDS011;26723;57.478;12.066;2022-09-09T02:43:53;0.57;;;0.57;;
40995;SDS011;26723;57.478;12.066;2022-09-09T02:47:10;0.77;;;0.77;;
40995;SDS011;26723;57.478;12.066;2022-09-09T02:50:31;0.60;;;0.60;;
40995;SDS011;26723;57.478;12.066;2022-09-09T02:53:44;0.70;;;0.70;;
40995;SDS011;26723;57.478;12.066;2022-09-09T02:57:03;0.73;;;0.73;;
40995;SDS011;26723;57.478;12.066;2022-09-09T03:00:21;0.80;;;0.80;;
40995;SDS011;26723;57.478;12.066;2022-09-09T03:03:35;0.93;;;0.93;;
40995;SDS011;26723;57.478;12.066;2022-09-09T03:06:50;1.27;;;0.70;;
40995;SDS011;26723;57.478;12.066;2022-09-09T03:10:00;1.00;;;1.00;;
40995;SDS011;26723;57.478;12.066;2022-09-09T03:13:08;0.80;;;0.80;;
40995;SDS011;26723;57.478;12.066;2022-09-09T03:16:20;0.80;;;0.80;;
40995;SDS011;26723;57.478;12.066;2022-09-09T03:19:30;0.80;;;0.80;;
40995;SDS011;26723;57.478;12.066;2022-09-09T03:22:41;1.20;;;0.80;;
40995;SDS011;26723;57.478;12.066;2022-09-09T03:25:51;1.00;;;1.00;;
40995;SDS011;26723;57.478;12.066;2022-09-09T03:29:10;0.70;;;0.70;;
40995;SDS011;26723;57.478;12.066;2022-09-09T03:32:19;0.80;;;0.80;;
40995;SDS011;26723;57.478;12.066;2022-09-09T03:35:29;0.87;;;0.87;;
40995;SDS011;26723;57.478;12.066;2022-09-09T03:38:39;0.70;;;0.70;;
40995;SDS011;26723;57.478;12.066;2022-09-09T03:41:47;0.65;;;0.65;;
40995;SDS011;26723;57.478;12.066;2022-09-09T03:44:57;1.10;;;1.00;;
40995;SDS011;26723;57.478;12.066;2022-09-09T03:48:06;0.90;;;0.90;;
40995;SDS011;26723;57.478;12.066;2022-09-09T03:51:16;0.77;;;0.77;;
40995;SDS011;26723;57.478;12.066;2022-09-09T03:54:27;0.80;;;0.80;;
40995;SDS011;26723;57.478;12.066;2022-09-09T03:57:36;0.70;;;0.70;;
40995;SDS011;26723;57.478;12.066;2022-09-09T04:00:52;1.27;;;0.80;;
40995;SDS011;26723;57.478;12.066;2022-09-09T04:04:02;0.90;;;0.87;;
40995;SDS011;26723;57.478;12.066;2022-09-09T04:07:10;0.80;;;0.80;;
40995;SDS011;26723;57.478;12.066;2022-09-09T04:10:20;1.23;;;0.80;;
40995;SDS011;26723;57.478;12.066;2022-09-09T04:13:30;0.83;;;0.80;;
40995;SDS011;26723;57.478;12.066;2022-09-09T04:16:41;1.00;;;0.90;;
40995;SDS011;26723;57.478;12.066;2022-09-09T04:19:51;0.80;;;0.80;;
40995;SDS011;26723;57.478;12.066;2022-09-09T04:23:01;1.43;;;0.70;;
40995;SDS011;26723;57.478;12.066;2022-09-09T04:26:11;1.17;;;0.70;;
40995;SDS011;26723;57.478;12.066;2022-09-09T04:29:20;0.70;;;0.70;;
40995;SDS011;26723;57.478;12.066;2022-09-09T04:32:29;0.80;;;0.80;;
40995;SDS011;26723;57.478;12.066;2022-09-09T04:35:43;0.70;;;0.70;;
40995;SDS011;26723;57.478;12.066;2022-09-09T04:38:55;0.90;;;0.90;;
40995;SDS011;26723;57.478;12.066;2022-09-09T04:42:05;1.00;;;1.00;;
40995;SDS011;26723;57.478;12.066;2022-09-09T04:45:15;0.70;;;0.70;;
40995;SDS011;26723;57.478;12.066;2022-09-09T04:48:24;1.17;;;1.00;;
40995;SDS011;26723;57.478;12.066;2022-09-09T04:51:34;1.00;;;0.90;;
40995;SDS011;26723;57.478;12.066;2022-09-09T04:54:43;2.83;;;1.17;;
40995;SDS011;26723;57.478;12.066;2022-09-09T04:57:53;1.08;;;0.98;;
40995;SDS011;26723;57.478;12.066;2022-09-09T05:01:07;0.90;;;0.90;;
40995;SDS011;26723;57.478;12.066;2022-09-09T05:04:18;0.87;;;0.73;;
40995;SDS011;26723;57.478;12.066;2022-09-09T05:07:27;0.73;;;0.73;;
40995;SDS011;26723;57.478;12.066;2022-09-09T05:10:36;0.77;;;0.77;;
40995;SDS011;26723;57.478;12.066;2022-09-09T05:13:49;0.85;;;0.85;;
40995;SDS011;26723;57.478;12.066;2022-09-09T05:16:59;1.90;;;1.00;;
40995;SDS011;26723;57.478;12.066;2022-09-09T05:20:07;1.80;;;1.00;;
40995;SDS011;26723;57.478;12.066;2022-09-09T05:23:22;0.93;;;0.93;;
40995;SDS011;26723;57.478;12.066;2022-09-09T05:26:31;0.97;;;0.97;;
40995;SDS011;26723;57.478;12.066;2022-09-09T05:29:42;1.03;;;1.00;;
40995;SDS011;26723;57.478;12.066;2022-09-09T05:32:52;1.00;;;1.00;;
40995;SDS011;26723;57.478;12.066;2022-09-09T05:36:04;1.90;;;1.00;;
40995;SDS011;26723;57.478;12.066;2022-09-09T05:39:14;1.00;;;1.00;;
40995;SDS011;26723;57.478;12.066;2022-09-09T05:42:23;1.25;;;1.13;;
40995;SDS011;26723;57.478;12.066;2022-09-09T05:45:33;1.50;;;0.93;;
40995;SDS011;26723;57.478;12.066;2022-09-09T05:48:42;1.00;;;1.00;;
40995;SDS011;26723;57.478;12.066;2022-09-09T05:51:53;1.00;;;1.00;;
40995;SDS011;26723;57.478;12.066;2022-09-09T05:55:02;1.48;;;0.90;;
40995;SDS011;26723;57.478;12.066;2022-09-09T05:58:12;0.90;;;0.90;;
40995;SDS011;26723;57.478;12.066;2022-09-09T06:01:23;1.07;;;1.00;;
40995;SDS011;26723;57.478;12.066;2022-09-09T06:04:34;1.00;;;1.00;;
40995;SDS011;26723;57.478;12.066;2022-09-09T06:07:44;1.37;;;1.10;;
40995;SDS011;26723;57.478;12.066;2022-09-09T06:10:53;1.88;;;1.08;;
40995;SDS011;26723;57.478;12.066;2022-09-09T06:14:03;1.17;;;0.95;;
40995;SDS011;26723;57.478;12.066;2022-09-09T06:17:14;0.88;;;0.88;;
40995;SDS011;26723;57.478;12.066;2022-09-09T06:20:23;0.87;;;0.73;;
40995;SDS011;26723;57.478;12.066;2022-09-09T06:23:31;1.47;;;1.37;;
40995;SDS011;26723;57.478;12.066;2022-09-09T06:26:41;1.03;;;1.00;;
40995;SDS011;26723;57.478;12.066;2022-09-09T06:29:55;1.07;;;1.00;;
40995;SDS011;26723;57.478;12.066;2022-09-09T06:33:05;1.10;;;1.10;;
40995;SDS011;26723;57.478;12.066;2022-09-09T06:36:14;0.85;;;0.85;;
40995;SDS011;26723;57.478;12.066;2022-09-09T06:39:24;1.10;;;1.10;;
40995;SDS011;26723;57.478;12.066;2022-09-09T06:42:34;0.90;;;0.90;;
40995;SDS011;26723;57.478;12.066;2022-09-09T06:46:02;1.08;;;0.82;;
40995;SDS011;26723;57.478;12.066;2022-09-09T06:49:14;1.00;;;1.00;;
40995;SDS011;26723;57.478;12.066;2022-09-09T06:52:22;1.08;;;1.08;;
40995;SDS011;26723;57.478;12.066;2022-09-09T06:55:32;0.90;;;0.90;;
40995;SDS011;26723;57.478;12.066;2022-09-09T06:58:41;0.90;;;0.90;;
40995;SDS011;26723;57.478;12.066;2022-09-09T07:01:57;0.80;;;0.80;;
40995;SDS011;26723;57.478;12.066;2022-09-09T07:05:08;1.13;;;1.03;;
40995;SDS011;26723;57.478;12.066;2022-09-09T07:08:20;1.53;;;1.00;;
40995;SDS011;26723;57.478;12.066;2022-09-09T07:11:29;1.00;;;1.00;;
40995;SDS011;26723;57.478;12.066;2022-09-09T07:14:39;2.47;;;1.00;;
40995;SDS011;26723;57.478;12.066;2022-09-09T07:17:48;1.27;;;1.25;;
40995;SDS011;26723;57.478;12.066;2022-09-09T07:20:58;1.02;;;1.00;;
40995;SDS011;26723;57.478;12.066;2022-09-09T07:24:08;1.20;;;1.10;;
40995;SDS011;26723;57.478;12.066;2022-09-09T07:27:19;1.00;;;1.00;;
40995;SDS011;26723;57.478;12.066;2022-09-09T07:30:29;0.93;;;0.90;;
40995;SDS011;26723;57.478;12.066;2022-09-09T07:33:41;1.20;;;1.02;;
40995;SDS011;26723;57.478;12.066;2022-09-09T07:36:51;1.02;;;1.02;;
40995;SDS011;26723;57.478;12.066;2022-09-09T07:40:01;1.33;;;1.10;;
40995;SDS011;26723;57.478;12.066;2022-09-09T07:43:10;1.00;;;0.90;;
40995;SDS011;26723;57.478;12.066;2022-09-09T07:46:24;1.23;;;1.13;;
40995;SDS011;26723;57.478;12.066;2022-09-09T07:49:33;1.08;;;1.05;;
40995;SDS011;26723;57.478;12.066;2022-09-09T07:52:45;1.30;;;1.20;;
40995;SDS011;26723;57.478;12.066;2022-09-09T07:55:54;1.20;;;1.10;;
40995;SDS011;26723;57.478;12.066;2022-09-09T07:59:03;2.22;;;1.08;;
40995;SDS011;26723;57.478;12.066;2022-09-09T08:02:14;1.85;;;1.10;;
40995;SDS011;26723;57.478;12.066;2022-09-09T08:05:23;0.77;;;0.77;;
40995;SDS011;26723;57.478;12.066;2022-09-09T08:08:34;1.02;;;1.02;;
40995;SDS011;26723;57.478;12.066;2022-09-09T08:11:43;2.13;;;0.85;;
40995;SDS011;26723;57.478;12.066;2022-09-09T08:14:51;1.55;;;1.20;;
40995;SDS011;26723;57.478;12.066;2022-09-09T08:18:02;1.38;;;1.05;;
40995;SDS011;26723;57.478;12.066;2022-09-09T08:21:12;1.15;;;1.05;;
40995;SDS011;26723;57.478;12.066;2022-09-09T08:24:25;1.17;;;1.17;;
40995;SDS011;26723;57.478;12.066;2022-09-09T08:27:33;0.90;;;0.90;;
40995;SDS011;26723;57.478;12.066;2022-09-09T08:30:43;1.10;;;1.10;;
40995;SDS011;26723;57.478;12.066;2022-09-09T08:33:52;1.70;;;1.10;;
40995;SDS011;26723;57.478;12.066;2022-09-09T08:37:01;1.55;;;1.25;;
40995;SDS011;26723;57.478;12.066;2022-09-09T08:40:21;1.48;;;0.88;;
40995;SDS011;26723;57.478;12.066;2022-09-09T08:43:34;1.30;;;1.20;;
40995;SDS011;26723;57.478;12.066;2022-09-09T08:46:45;1.17;;;1.08;;
40995;SDS011;26723;57.478;12.066;2022-09-09T08:50:07;0.88;;;0.88;;
40995;SDS011;26723;57.478;12.066;2022-09-09T08:53:30;1.38;;;1.27;;
40995;SDS011;26723;57.478;12.066;2022-09-09T08:56:47;1.10;;;1.05;;
40995;SDS011;26723;57.478;12.066;2022-09-09T08:59:56;1.40;;;1.10;;
40995;SDS011;26723;57.478;12.066;2022-09-09T09:03:07;1.45;;;1.10;;
40995;SDS011;26723;57.478;12.066;2022-09-09T09:06:26;1.27;;;1.27;;
40995;SDS011;26723;57.478;12.066;2022-09-09T09:09:51;0.90;;;0.90;;
40995;SDS011;26723;57.478;12.066;2022-09-09T09:13:23;2.00;;;1.20;;
40995;SDS011;26723;57.478;12.066;2022-09-09T09:41:59;1.27;;;1.20;;
40995;SDS011;26723;57.478;12.066;2022-09-09T09:45:20;1.10;;;1.10;;
40995;SDS011;26723;57.478;12.066;2022-09-09T09:48:36;1.13;;;1.10;;
40995;SDS011;26723;57.478;12.066;2022-09-09T09:51:48;1.40;;;1.05;;
40995;SDS011;26723;57.478;12.066;2022-09-09T09:54:56;1.50;;;1.40;;
40995;SDS011;26723;57.478;12.066;2022-09-09T09:58:14;1.90;;;1.30;;
40995;SDS011;26723;57.478;12.066;2022-09-09T10:01:25;1.27;;;1.10;;
40995;SDS011;26723;57.478;12.066;2022-09-09T10:04:37;1.48;;;1.20;;
40995;SDS011;26723;57.478;12.066;2022-09-09T10:07:46;1.88;;;1.33;;
40995;SDS011;26723;57.478;12.066;2022-09-09T10:11:02;1.48;;;1.35;;
40995;SDS011;26723;57.478;12.066;2022-09-09T10:14:25;1.00;;;1.00;;
40995;SDS011;26723;57.478;12.066;2022-09-09T10:17:43;2.08;;;1.63;;
40995;SDS011;26723;57.478;12.066;2022-09-09T10:20:59;1.60;;;1.27;;
40995;SDS011;26723;57.478;12.066;2022-09-09T10:24:24;1.70;;;1.17;;
40995;SDS011;26723;57.478;12.066;2022-09-09T10:28:24;1.27;;;1.23;;
40995;SDS011;26723;57.478;12.066;2022-09-09T10:31:44;2.13;;;1.60;;
40995;SDS011;26723;57.478;12.066;2022-09-09T10:35:01;1.05;;;1.05;;
40995;SDS011;26723;57.478;12.066;2022-09-09T10:38:13;1.33;;;1.20;;
40995;SDS011;26723;57.478;12.066;2022-09-09T10:41:39;1.20;;;1.10;;
40995;SDS011;26723;57.478;12.066;2022-09-09T10:44:59;2.47;;;1.27;;
40995;SDS011;26723;57.478;12.066;2022-09-09T10:48:23;1.42;;;1.20;;
40995;SDS011;26723;57.478;12.066;2022-09-09T10:51:54;1.55;;;1.30;;
40995;SDS011;26723;57.478;12.066;2022-09-09T10:55:09;1.70;;;1.60;;
40995;SDS011;26723;57.478;12.066;2022-09-09T10:58:22;1.75;;;1.23;;
40995;SDS011;26723;57.478;12.066;2022-09-09T11:01:36;1.42;;;1.35;;
40995;SDS011;26723;57.478;12.066;2022-09-09T11:04:53;1.35;;;1.20;;
40995;SDS011;26723;57.478;12.066;2022-09-09T11:08:09;2.13;;;1.40;;
40995;SDS011;26723;57.478;12.066;2022-09-09T11:11:25;1.60;;;1.50;;
40995;SDS011;26723;57.478;12.066;2022-09-09T11:14:39;2.63;;;1.23;;
40995;SDS011;26723;57.478;12.066;2022-09-09T11:17:52;1.50;;;1.40;;
40995;SDS011;26723;57.478;12.066;2022-09-09T11:21:06;1.27;;;1.10;;
40995;SDS011;26723;57.478;12.066;2022-09-09T11:24:22;1.40;;;1.30;;
40995;SDS011;26723;57.478;12.066;2022-09-09T11:27:36;1.67;;;1.58;;
40995;SDS011;26723;57.478;12.066;2022-09-09T11:30:54;1.40;;;1.30;;
40995;SDS011;26723;57.478;12.066;2022-09-09T11:34:24;2.30;;;1.67;;
40995;SDS011;26723;57.478;12.066;2022-09-09T11:38:02;1.88;;;1.52;;
40995;SDS011;26723;57.478;12.066;2022-09-09T11:41:32;1.63;;;1.30;;
40995;SDS011;26723;57.478;12.066;2022-09-09T11:44:44;1.20;;;1.20;;
40995;SDS011;26723;57.478;12.066;2022-09-09T11:47:53;1.65;;;1.33;;
40995;SDS011;26723;57.478;12.066;2022-09-09T11:51:04;2.03;;;1.50;;
40995;SDS011;26723;57.478;12.066;2022-09-09T11:54:28;2.53;;;1.50;;
40995;SDS011;26723;57.478;12.066;2022-09-09T11:57:38;1.80;;;1.42;;
40995;SDS011;26723;57.478;12.066;2022-09-09T12:00:50;1.60;;;1.50;;
40995;SDS011;26723;57.478;12.066;2022-09-09T12:04:05;1.50;;;1.40;;
40995;SDS011;26723;57.478;12.066;2022-09-09T12:07:34;1.38;;;1.33;;
40995;SDS011;26723;57.478;12.066;2022-09-09T12:10:54;2.13;;;1.40;;
40995;SDS011;26723;57.478;12.066;2022-09-09T12:14:03;2.17;;;1.38;;
40995;SDS011;26723;57.478;12.066;2022-09-09T12:17:18;1.45;;;1.35;;
40995;SDS011;26723;57.478;12.066;2022-09-09T12:20:31;1.70;;;1.60;;
40995;SDS011;26723;57.478;12.066;2022-09-09T12:23:43;1.67;;;1.50;;
40995;SDS011;26723;57.478;12.066;2022-09-09T12:27:00;1.70;;;1.50;;
40995;SDS011;26723;57.478;12.066;2022-09-09T12:30:16;1.50;;;1.40;;
40995;SDS011;26723;57.478;12.066;2022-09-09T12:33:32;1.50;;;1.40;;
40995;SDS011;26723;57.478;12.066;2022-09-09T12:36:42;1.80;;;1.70;;
40995;SDS011;26723;57.478;12.066;2022-09-09T12:40:00;1.60;;;1.50;;
40995;SDS011;26723;57.478;12.066;2022-09-09T12:43:18;1.48;;;1.38;;
40995;SDS011;26723;57.478;12.066;2022-09-09T12:46:30;1.55;;;1.30;;
40995;SDS011;26723;57.478;12.066;2022-09-09T12:49:43;1.60;;;1.50;;
40995;SDS011;26723;57.478;12.066;2022-09-09T12:52:52;1.65;;;1.60;;
40995;SDS011;26723;57.478;12.066;2022-09-09T12:56:05;1.50;;;1.40;;
40995;SDS011;26723;57.478;12.066;2022-09-09T12:59:22;1.20;;;1.15;;
40995;SDS011;26723;57.478;12.066;2022-09-09T13:02:32;1.30;;;1.30;;
40995;SDS011;26723;57.478;12.066;2022-09-09T13:05:41;1.38;;;1.38;;
40995;SDS011;26723;57.478;12.066;2022-09-09T13:08:50;1.30;;;1.20;;
40995;SDS011;26723;57.478;12.066;2022-09-09T13:11:59;1.08;;;1.08;;
40995;SDS011;26723;57.478;12.066;2022-09-09T13:15:14;1.33;;;1.33;;
40995;SDS011;26723;57.478;12.066;2022-09-09T13:18:29;1.55;;;1.45;;
40995;SDS011;26723;57.478;12.066;2022-09-09T13:21:40;1.30;;;1.20;;
40995;SDS011;26723;57.478;12.066;2022-09-09T13:24:58;2.25;;;1.20;;
40995;SDS011;26723;57.478;12.066;2022-09-09T13:28:18;1.20;;;1.10;;
40995;SDS011;26723;57.478;12.066;2022-09-09T13:31:32;1.38;;;1.27;;
40995;SDS011;26723;57.478;12.066;2022-09-09T13:34:50;2.10;;;1.10;;
40995;SDS011;26723;57.478;12.066;2022-09-09T13:37:59;1.15;;;1.15;;
40995;SDS011;26723;57.478;12.066;2022-09-09T13:41:18;1.50;;;1.40;;
40995;SDS011;26723;57.478;12.066;2022-09-09T13:44:30;1.10;;;1.10;;
40995;SDS011;26723;57.478;12.066;2022-09-09T13:47:44;1.23;;;1.20;;
40995;SDS011;26723;57.478;12.066;2022-09-09T13:50:53;1.10;;;1.05;;
40995;SDS011;26723;57.478;12.066;2022-09-09T13:54:04;1.02;;;1.02;;
40995;SDS011;26723;57.478;12.066;2022-09-09T13:57:14;1.77;;;1.10;;
40995;SDS011;26723;57.478;12.066;2022-09-09T14:00:24;1.10;;;1.10;;
40995;SDS011;26723;57.478;12.066;2022-09-09T14:03:35;1.00;;;1.00;;
40995;SDS011;26723;57.478;12.066;2022-09-09T14:06:43;1.02;;;1.00;;
40995;SDS011;26723;57.478;12.066;2022-09-09T14:09:52;1.20;;;1.20;;
40995;SDS011;26723;57.478;12.066;2022-09-09T14:13:00;1.23;;;1.20;;
40995;SDS011;26723;57.478;12.066;2022-09-09T14:16:09;0.93;;;0.93;;
40995;SDS011;26723;57.478;12.066;2022-09-09T14:19:19;1.40;;;1.10;;
40995;SDS011;26723;57.478;12.066;2022-09-09T14:22:28;1.05;;;1.05;;
40995;SDS011;26723;57.478;12.066;2022-09-09T14:25:36;0.90;;;0.90;;
40995;SDS011;26723;57.478;12.066;2022-09-09T14:28:47;1.10;;;1.10;;
40995;SDS011;26723;57.478;12.066;2022-09-09T14:32:01;1.17;;;1.08;;
40995;SDS011;26723;57.478;12.066;2022-09-09T14:35:14;0.80;;;0.80;;
40995;SDS011;26723;57.478;12.066;2022-09-09T14:38:23;1.15;;;1.15;;
40995;SDS011;26723;57.478;12.066;2022-09-09T14:41:32;1.20;;;1.20;;
40995;SDS011;26723;57.478;12.066;2022-09-09T14:44:40;0.93;;;0.93;;
40995;SDS011;26723;57.478;12.066;2022-09-09T14:47:49;0.88;;;0.88;;
40995;SDS011;26723;57.478;12.066;2022-09-09T14:50:59;1.05;;;1.05;;
40995;SDS011;26723;57.478;12.066;2022-09-09T14:54:13;0.80;;;0.80;;
40995;SDS011;26723;57.478;12.066;2022-09-09T14:57:21;0.93;;;0.93;;
40995;SDS011;26723;57.478;12.066;2022-09-09T15:00:30;0.80;;;0.80;;
40995;SDS011;26723;57.478;12.066;2022-09-09T15:03:39;0.88;;;0.88;;
40995;SDS011;26723;57.478;12.066;2022-09-09T15:06:50;0.90;;;0.90;;
40995;SDS011;26723;57.478;12.066;2022-09-09T15:09:59;0.73;;;0.73;;
40995;SDS011;26723;57.478;12.066;2022-09-09T15:13:08;0.77;;;0.77;;
40995;SDS011;26723;57.478;12.066;2022-09-09T15:16:17;0.70;;;0.70;;
40995;SDS011;26723;57.478;12.066;2022-09-09T15:19:26;0.90;;;0.90;;
40995;SDS011;26723;57.478;12.066;2022-09-09T15:22:36;0.50;;;0.50;;
40995;SDS011;26723;57.478;12.066;2022-09-09T15:25:50;0.80;;;0.80;;
40995;SDS011;26723;57.478;12.066;2022-09-09T15:28:59;0.90;;;0.90;;
40995;SDS011;26723;57.478;12.066;2022-09-09T15:32:08;0.70;;;0.70;;
40995;SDS011;26723;57.478;12.066;2022-09-09T15:35:16;0.75;;;0.75;;
40995;SDS011;26723;57.478;12.066;2022-09-09T15:38:26;0.80;;;0.80;;
40995;SDS011;26723;57.478;12.066;2022-09-09T15:41:35;0.73;;;0.73;;
40995;SDS011;26723;57.478;12.066;2022-09-09T15:44:43;0.50;;;0.50;;
40995;SDS011;26723;57.478;12.066;2022-09-09T15:47:52;0.98;;;0.98;;
40995;SDS011;26723;57.478;12.066;2022-09-09T15:51:01;0.70;;;0.70;;
40995;SDS011;26723;57.478;12.066;2022-09-09T15:54:33;0.60;;;0.60;;
40995;SDS011;26723;57.478;12.066;2022-09-09T15:57:45;0.85;;;0.85;;
40995;SDS011;26723;57.478;12.066;2022-09-09T16:00:54;0.50;;;0.50;;
40995;SDS011;26723;57.478;12.066;2022-09-09T16:04:02;0.98;;;0.85;;
40995;SDS011;26723;57.478;12.066;2022-09-09T16:07:11;0.80;;;0.80;;
40995;SDS011;26723;57.478;12.066;2022-09-09T16:10:21;0.68;;;0.68;;
40995;SDS011;26723;57.478;12.066;2022-09-09T16:13:32;0.80;;;0.80;;
40995;SDS011;26723;57.478;12.066;2022-09-09T16:16:41;0.50;;;0.50;;
40995;SDS011;26723;57.478;12.066;2022-09-09T16:19:50;0.77;;;0.77;;
40995;SDS011;26723;57.478;12.066;2022-09-09T16:23:00;0.50;;;0.50;;
40995;SDS011;26723;57.478;12.066;2022-09-09T16:26:12;0.80;;;0.80;;
40995;SDS011;26723;57.478;12.066;2022-09-09T16:29:22;0.70;;;0.70;;
40995;SDS011;26723;57.478;12.066;2022-09-09T16:32:33;0.50;;;0.50;;
40995;SDS011;26723;57.478;12.066;2022-09-09T16:35:42;0.52;;;0.52;;
40995;SDS011;26723;57.478;12.066;2022-09-09T16:38:52;0.70;;;0.70;;
40995;SDS011;26723;57.478;12.066;2022-09-09T16:42:03;0.70;;;0.70;;
40995;SDS011;26723;57.478;12.066;2022-09-09T16:45:11;0.65;;;0.65;;
40995;SDS011;26723;57.478;12.066;2022-09-09T16:48:20;0.60;;;0.60;;
40995;SDS011;26723;57.478;12.066;2022-09-09T16:51:30;0.57;;;0.57;;
40995;SDS011;26723;57.478;12.066;2022-09-09T16:54:39;0.98;;;0.98;;
40995;SDS011;26723;57.478;12.066;2022-09-09T16:57:49;2.00;;;1.90;;
40995;SDS011;26723;57.478;12.066;2022-09-09T17:00:58;0.98;;;0.95;;
40995;SDS011;26723;57.478;12.066;2022-09-09T17:04:07;0.90;;;0.90;;
40995;SDS011;26723;57.478;12.066;2022-09-09T17:07:17;0.95;;;0.60;;
40995;SDS011;26723;57.478;12.066;2022-09-09T17:10:26;0.50;;;0.50;;
40995;SDS011;26723;57.478;12.066;2022-09-09T17:13:35;0.77;;;0.77;;
40995;SDS011;26723;57.478;12.066;2022-09-09T17:16:44;0.60;;;0.60;;
40995;SDS011;26723;57.478;12.066;2022-09-09T17:19:53;0.70;;;0.70;;
40995;SDS011;26723;57.478;12.066;2022-09-09T17:23:01;0.70;;;0.70;;
40995;SDS011;26723;57.478;12.066;2022-09-09T17:26:10;0.60;;;0.60;;
40995;SDS011;26723;57.478;12.066;2022-09-09T17:29:21;0.77;;;0.77;;
40995;SDS011;26723;57.478;12.066;2022-09-09T17:32:31;0.80;;;0.80;;
40995;SDS011;26723;57.478;12.066;2022-09-09T17:35:43;0.68;;;0.68;;
40995;SDS011;26723;57.478;12.066;2022-09-09T17:38:51;0.73;;;0.73;;
40995;SDS011;26723;57.478;12.066;2022-09-09T17:42:00;0.50;;;0.50;;
40995;SDS011;26723;57.478;12.066;2022-09-09T17:45:10;0.93;;;0.93;;
40995;SDS011;26723;57.478;12.066;2022-09-09T17:48:19;0.60;;;0.60;;
40995;SDS011;26723;57.478;12.066;2022-09-09T17:51:28;0.60;;;0.60;;
40995;SDS011;26723;57.478;12.066;2022-09-09T17:54:37;1.63;;;0.90;;
40995;SDS011;26723;57.478;12.066;2022-09-09T17:57:47;0.60;;;0.60;;
40995;SDS011;26723;57.478;12.066;2022-09-09T18:00:57;0.80;;;0.80;;
40995;SDS011;26723;57.478;12.066;2022-09-09T18:04:10;0.63;;;0.63;;
40995;SDS011;26723;57.478;12.066;2022-09-09T18:07:20;0.75;;;0.75;;
40995;SDS011;26723;57.478;12.066;2022-09-09T18:10:30;0.60;;;0.60;;
40995;SDS011;26723;57.478;12.066;2022-09-09T18:13:38;0.88;;;0.85;;
40995;SDS011;26723;57.478;12.066;2022-09-09T18:16:48;0.60;;;0.60;;
40995;SDS011;26723;57.478;12.066;2022-09-09T18:19:57;1.05;;;0.98;;
40995;SDS011;26723;57.478;12.066;2022-09-09T18:23:08;0.80;;;0.80;;
40995;SDS011;26723;57.478;12.066;2022-09-09T18:26:17;0.65;;;0.65;;
40995;SDS011;26723;57.478;12.066;2022-09-09T18:29:27;0.70;;;0.70;;
40995;SDS011;26723;57.478;12.066;2022-09-09T18:32:38;0.88;;;0.88;;
40995;SDS011;26723;57.478;12.066;2022-09-09T18:35:46;0.90;;;0.90;;
40995;SDS011;26723;57.478;12.066;2022-09-09T18:38:55;0.80;;;0.80;;
40995;SDS011;26723;57.478;12.066;2022-09-09T18:42:04;0.75;;;0.75;;
40995;SDS011;26723;57.478;12.066;2022-09-09T18:45:13;0.70;;;0.70;;
40995;SDS011;26723;57.478;12.066;2022-09-09T18:48:23;0.95;;;0.95;;
40995;SDS011;26723;57.478;12.066;2022-09-09T18:51:32;0.80;;;0.80;;
40995;SDS011;26723;57.478;12.066;2022-09-09T18:54:42;0.90;;;0.90;;
40995;SDS011;26723;57.478;12.066;2022-09-09T18:57:51;1.00;;;1.00;;
40995;SDS011;26723;57.478;12.066;2022-09-09T19:01:01;0.80;;;0.80;;
40995;SDS011;26723;57.478;12.066;2022-09-09T19:04:13;0.75;;;0.75;;
40995;SDS011;26723;57.478;12.066;2022-09-09T19:07:22;0.80;;;0.80;;
40995;SDS011;26723;57.478;12.066;2022-09-09T19:10:30;0.80;;;0.80;;
40995;SDS011;26723;57.478;12.066;2022-09-09T19:13:43;0.80;;;0.80;;
40995;SDS011;26723;57.478;12.066;2022-09-09T19:16:56;1.15;;;1.10;;
40995;SDS011;26723;57.478;12.066;2022-09-09T19:20:08;0.85;;;0.85;;
40995;SDS011;26723;57.478;12.066;2022-09-09T19:23:16;0.77;;;0.77;;
40995;SDS011;26723;57.478;12.066;2022-09-09T19:26:25;0.98;;;0.98;;